sensor_id;sensor_type;location;lat;lon;timestamp;pressure;altitude;pressure_sealevel;temperature;humidity
9523;BME280;63165;43.016;25.784;2023-12-28T00:02:05;101290.78;;;2.40;91.19
9523;BME280;63165;43.016;25.784;2023-12-28T00:04:32;101286.44;;;2.39;91.29
9523;BME280;63165;43.016;25.784;2023-12-28T00:07:02;101283.63;;;2.33;90.96
9523;BME280;63165;43.016;25.784;2023-12-28T00:09:29;101290.25;;;2.25;91.16
9523;BME280;63165;43.016;25.784;2023-12-28T00:11:56;101287.31;;;2.16;91.54
9523;BME280;63165;43.016;25.784;2023-12-28T00:14:23;101295.81;;;2.13;91.80
9523;BME280;63165;43.016;25.784;2023-12-28T00:16:50;101309.72;;;2.17;91.95
9523;BME280;63165;43.016;25.784;2023-12-28T00:19:17;101308.06;;;2.19;92.07
9523;BME280;63165;43.016;25.784;2023-12-28T00:21:46;101305.66;;;2.23;92.25
9523;BME280;63165;43.016;25.784;2023-12-28T00:24:16;101301.38;;;2.24;92.53
9523;BME280;63165;43.016;25.784;2023-12-28T00:26:43;101306.75;;;2.30;92.33
9523;BME280;63165;43.016;25.784;2023-12-28T00:29:10;101310.59;;;2.40;92.19
9523;BME280;63165;43.016;25.784;2023-12-28T00:31:37;101312.25;;;2.38;91.88
9523;BME280;63165;43.016;25.784;2023-12-28T00:34:04;101315.69;;;2.38;91.99
9523;BME280;63165;43.016;25.784;2023-12-28T00:36:31;101314.84;;;2.39;91.91
9523;BME280;63165;43.016;25.784;2023-12-28T00:38:58;101310.63;;;2.41;91.83
9523;BME280;63165;43.016;25.784;2023-12-28T00:41:27;101310.63;;;2.41;91.59
9523;BME280;63165;43.016;25.784;2023-12-28T00:43:54;101309.59;;;2.36;91.64
9523;BME280;63165;43.016;25.784;2023-12-28T00:46:21;101317.94;;;2.29;91.72
9523;BME280;63165;43.016;25.784;2023-12-28T00:48:48;101312.81;;;2.30;92.12
9523;BME280;63165;43.016;25.784;2023-12-28T00:51:15;101308.47;;;2.29;92.19
9523;BME280;63165;43.016;25.784;2023-12-28T00:53:42;101315.34;;;2.29;91.98
9523;BME280;63165;43.016;25.784;2023-12-28T00:56:10;101302.50;;;2.30;92.02
9523;BME280;63165;43.016;25.784;2023-12-28T00:58:40;101313.56;;;2.28;91.67
9523;BME280;63165;43.016;25.784;2023-12-28T01:01:09;101319.50;;;2.25;91.21
9523;BME280;63165;43.016;25.784;2023-12-28T01:03:36;101315.94;;;2.22;91.31
9523;BME280;63165;43.016;25.784;2023-12-28T01:06:04;101315.81;;;2.19;91.02
9523;BME280;63165;43.016;25.784;2023-12-28T01:08:32;101313.88;;;2.13;91.26
9523;BME280;63165;43.016;25.784;2023-12-28T01:11:00;101306.03;;;2.10;91.34
9523;BME280;63165;43.016;25.784;2023-12-28T01:13:28;101322.97;;;2.03;91.63
9523;BME280;63165;43.016;25.784;2023-12-28T01:15:57;101316.75;;;1.98;91.47
9523;BME280;63165;43.016;25.784;2023-12-28T01:18:24;101310.56;;;1.93;91.23
9523;BME280;63165;43.016;25.784;2023-12-28T01:20:52;101303.38;;;1.86;91.89
9523;BME280;63165;43.016;25.784;2023-12-28T01:23:19;101295.41;;;1.80;92.08
9523;BME280;63165;43.016;25.784;2023-12-28T01:25:46;101293.66;;;1.79;92.72
9523;BME280;63165;43.016;25.784;2023-12-28T01:28:13;101296.34;;;1.82;92.73
9523;BME280;63165;43.016;25.784;2023-12-28T01:30:40;101297.22;;;1.82;93.10
9523;BME280;63165;43.016;25.784;2023-12-28T01:33:11;101300.03;;;1.88;93.90
9523;BME280;63165;43.016;25.784;2023-12-28T01:35:38;101311.50;;;1.95;93.77
9523;BME280;63165;43.016;25.784;2023-12-28T01:38:05;101319.66;;;2.06;93.78
9523;BME280;63165;43.016;25.784;2023-12-28T01:40:32;101314.72;;;2.12;93.36
9523;BME280;63165;43.016;25.784;2023-12-28T01:42:59;101303.53;;;2.13;92.83
9523;BME280;63165;43.016;25.784;2023-12-28T01:45:26;101301.03;;;2.14;92.76
9523;BME280;63165;43.016;25.784;2023-12-28T01:47:54;101306.31;;;2.18;92.02
9523;BME280;63165;43.016;25.784;2023-12-28T01:50:25;101303.53;;;2.13;91.75
9523;BME280;63165;43.016;25.784;2023-12-28T01:52:54;101303.97;;;2.01;91.93
9523;BME280;63165;43.016;25.784;2023-12-28T01:55:23;101327.78;;;1.94;92.36
9523;BME280;63165;43.016;25.784;2023-12-28T01:57:50;101311.22;;;1.89;92.75
9523;BME280;63165;43.016;25.784;2023-12-28T02:00:18;101305.97;;;1.86;92.67
9523;BME280;63165;43.016;25.784;2023-12-28T02:02:47;101305.75;;;1.80;92.90
9523;BME280;63165;43.016;25.784;2023-12-28T02:05:14;101281.16;;;1.67;93.12
9523;BME280;63165;43.016;25.784;2023-12-28T02:07:43;101311.22;;;1.89;93.11
9523;BME280;63165;43.016;25.784;2023-12-28T02:10:10;101311.22;;;1.89;92.40
9523;BME280;63165;43.016;25.784;2023-12-28T02:12:37;101294.63;;;1.82;92.38
9523;BME280;63165;43.016;25.784;2023-12-28T02:15:05;101297.28;;;1.84;91.96
9523;BME280;63165;43.016;25.784;2023-12-28T02:17:37;101304.38;;;1.67;91.83
9523;BME280;63165;43.016;25.784;2023-12-28T02:20:06;101290.13;;;1.77;92.17
9523;BME280;63165;43.016;25.784;2023-12-28T02:22:34;101295.41;;;1.80;92.63
9523;BME280;63165;43.016;25.784;2023-12-28T02:25:05;101295.41;;;1.80;92.92
9523;BME280;63165;43.016;25.784;2023-12-28T02:27:34;101295.41;;;1.80;92.53
9523;BME280;63165;43.016;25.784;2023-12-28T02:30:01;101295.44;;;1.81;92.22
9523;BME280;63165;43.016;25.784;2023-12-28T02:32:35;101277.81;;;1.69;92.13
9523;BME280;63165;43.016;25.784;2023-12-28T02:35:13;101287.13;;;1.66;92.14
9523;BME280;63165;43.016;25.784;2023-12-28T02:37:42;101290.41;;;1.62;92.22
9523;BME280;63165;43.016;25.784;2023-12-28T02:40:14;101291.03;;;1.56;92.37
9523;BME280;63165;43.016;25.784;2023-12-28T02:42:42;101285.59;;;1.27;92.43
9523;BME280;63165;43.016;25.784;2023-12-28T02:45:09;101279.34;;;1.43;92.74
9523;BME280;63165;43.016;25.784;2023-12-28T02:47:37;101278.19;;;1.36;92.88
9523;BME280;63165;43.016;25.784;2023-12-28T02:50:05;101271.44;;;1.39;93.13
9523;BME280;63165;43.016;25.784;2023-12-28T02:52:32;101251.47;;;1.34;93.42
9523;BME280;63165;43.016;25.784;2023-12-28T02:54:59;101249.84;;;1.36;93.93
9523;BME280;63165;43.016;25.784;2023-12-28T02:57:28;101245.69;;;1.40;94.40
9523;BME280;63165;43.016;25.784;2023-12-28T02:59:55;101252.84;;;1.47;94.69
9523;BME280;63165;43.016;25.784;2023-12-28T03:02:27;101254.69;;;1.50;94.40
9523;BME280;63165;43.016;25.784;2023-12-28T03:04:55;101256.72;;;1.59;94.28
9523;BME280;63165;43.016;25.784;2023-12-28T03:07:22;101218.72;;;1.32;94.17
9523;BME280;63165;43.016;25.784;2023-12-28T03:09:49;101281.81;;;1.63;94.65
9523;BME280;63165;43.016;25.784;2023-12-28T03:12:16;101261.69;;;1.75;94.32
9523;BME280;63165;43.016;25.784;2023-12-28T03:14:45;101261.75;;;1.77;93.96
9523;BME280;63165;43.016;25.784;2023-12-28T03:17:12;101218.31;;;1.44;93.32
9523;BME280;63165;43.016;25.784;2023-12-28T03:19:39;101268.34;;;1.70;92.95
9523;BME280;63165;43.016;25.784;2023-12-28T03:22:06;101258.56;;;1.61;92.91
9523;BME280;63165;43.016;25.784;2023-12-28T03:24:33;101256.63;;;1.55;92.93
9523;BME280;63165;43.016;25.784;2023-12-28T03:27:00;101247.06;;;1.53;93.27
9523;BME280;63165;43.016;25.784;2023-12-28T03:29:28;101255.56;;;1.50;93.39
9523;BME280;63165;43.016;25.784;2023-12-28T03:31:56;101247.06;;;1.53;93.42
9523;BME280;63165;43.016;25.784;2023-12-28T03:34:24;101254.94;;;1.56;93.13
9523;BME280;63165;43.016;25.784;2023-12-28T03:36:55;101241.84;;;1.51;93.13
9523;BME280;63165;43.016;25.784;2023-12-28T03:39:22;101264.72;;;1.65;92.92
9523;BME280;63165;43.016;25.784;2023-12-28T03:41:50;101255.28;;;1.65;92.92
9523;BME280;63165;43.016;25.784;2023-12-28T03:44:18;101268.47;;;1.73;92.71
9523;BME280;63165;43.016;25.784;2023-12-28T03:46:47;101261.75;;;1.77;92.46
9523;BME280;63165;43.016;25.784;2023-12-28T03:49:16;101219.25;;;1.46;91.79
9523;BME280;63165;43.016;25.784;2023-12-28T03:51:44;101256.44;;;1.73;91.59
9523;BME280;63165;43.016;25.784;2023-12-28T03:54:12;101278.03;;;1.75;91.94
9523;BME280;63165;43.016;25.784;2023-12-28T03:56:39;101279.81;;;1.77;91.41
9523;BME280;63165;43.016;25.784;2023-12-28T03:59:06;101277.00;;;1.70;91.03
9523;BME280;63165;43.016;25.784;2023-12-28T04:01:33;101253.06;;;1.52;90.82
9523;BME280;63165;43.016;25.784;2023-12-28T04:04:00;101273.75;;;1.53;91.03
9523;BME280;63165;43.016;25.784;2023-12-28T04:06:29;101277.84;;;1.48;91.32
9523;BME280;63165;43.016;25.784;2023-12-28T04:08:56;101229.69;;;1.26;91.40
9523;BME280;63165;43.016;25.784;2023-12-28T04:11:23;101271.16;;;1.53;91.57
9523;BME280;63165;43.016;25.784;2023-12-28T04:13:50;101271.09;;;1.52;91.25
9523;BME280;63165;43.016;25.784;2023-12-28T04:16:17;101261.34;;;1.45;90.97
9523;BME280;63165;43.016;25.784;2023-12-28T04:18:44;101263.63;;;1.37;91.08
9523;BME280;63165;43.016;25.784;2023-12-28T04:21:12;101264.34;;;1.33;91.49
9523;BME280;63165;43.016;25.784;2023-12-28T04:23:41;101261.78;;;1.34;91.61
9523;BME280;63165;43.016;25.784;2023-12-28T04:26:08;101267.78;;;1.33;91.58
9523;BME280;63165;43.016;25.784;2023-12-28T04:28:35;101268.78;;;1.37;91.83
9523;BME280;63165;43.016;25.784;2023-12-28T04:31:03;101269.72;;;1.39;91.98
9523;BME280;63165;43.016;25.784;2023-12-28T04:33:31;101296.31;;;1.38;91.66
9523;BME280;63165;43.016;25.784;2023-12-28T04:36:01;101262.88;;;1.40;91.42
9523;BME280;63165;43.016;25.784;2023-12-28T04:38:29;101272.47;;;1.44;91.24
9523;BME280;63165;43.016;25.784;2023-12-28T04:40:58;101276.47;;;1.35;91.20
9523;BME280;63165;43.016;25.784;2023-12-28T04:43:26;101272.75;;;1.29;90.67
9523;BME280;63165;43.016;25.784;2023-12-28T04:45:53;101271.69;;;1.24;90.64
9523;BME280;63165;43.016;25.784;2023-12-28T04:48:20;101269.69;;;1.16;91.00
9523;BME280;63165;43.016;25.784;2023-12-28T04:50:49;101261.34;;;1.03;91.20
9523;BME280;63165;43.016;25.784;2023-12-28T04:53:18;101276.16;;;1.07;91.44
9523;BME280;63165;43.016;25.784;2023-12-28T04:55:45;101274.53;;;1.09;91.17
9523;BME280;63165;43.016;25.784;2023-12-28T04:58:14;101276.16;;;1.07;91.36
9523;BME280;63165;43.016;25.784;2023-12-28T05:00:41;101272.34;;;0.99;91.69
9523;BME280;63165;43.016;25.784;2023-12-28T05:03:08;101223.94;;;0.70;91.84
9523;BME280;63165;43.016;25.784;2023-12-28T05:05:35;101255.78;;;0.92;92.14
9523;BME280;63165;43.016;25.784;2023-12-28T05:08:03;101258.47;;;0.95;92.60
9523;BME280;63165;43.016;25.784;2023-12-28T05:10:30;101256.66;;;0.92;92.43
9523;BME280;63165;43.016;25.784;2023-12-28T05:12:57;101270.66;;;0.99;92.31
9523;BME280;63165;43.016;25.784;2023-12-28T05:15:26;101268.28;;;1.04;92.22
9523;BME280;63165;43.016;25.784;2023-12-28T05:17:53;101269.28;;;1.07;92.00
9523;BME280;63165;43.016;25.784;2023-12-28T05:20:20;101263.19;;;1.05;91.19
9523;BME280;63165;43.016;25.784;2023-12-28T05:22:47;101259.63;;;1.02;91.21
9523;BME280;63165;43.016;25.784;2023-12-28T05:25:14;101262.25;;;1.03;91.37
9523;BME280;63165;43.016;25.784;2023-12-28T05:27:41;101263.00;;;1.01;91.32
9523;BME280;63165;43.016;25.784;2023-12-28T05:30:08;101265.63;;;1.02;91.60
9523;BME280;63165;43.016;25.784;2023-12-28T05:32:36;101256.91;;;0.99;91.31
9523;BME280;63165;43.016;25.784;2023-12-28T05:35:04;101254.94;;;0.93;91.46
9523;BME280;63165;43.016;25.784;2023-12-28T05:37:31;101262.34;;;0.85;91.52
9523;BME280;63165;43.016;25.784;2023-12-28T05:39:58;101252.53;;;0.76;92.03
9523;BME280;63165;43.016;25.784;2023-12-28T05:42:26;101251.53;;;0.73;92.32
9523;BME280;63165;43.016;25.784;2023-12-28T05:44:53;101250.56;;;0.71;92.27
9523;BME280;63165;43.016;25.784;2023-12-28T05:47:20;101247.19;;;0.72;92.13
9523;BME280;63165;43.016;25.784;2023-12-28T05:49:48;101251.47;;;0.71;92.02
9523;BME280;63165;43.016;25.784;2023-12-28T05:52:15;101253.03;;;0.68;92.43
9523;BME280;63165;43.016;25.784;2023-12-28T05:54:44;101247.88;;;0.68;92.86
9523;BME280;63165;43.016;25.784;2023-12-28T05:57:13;101251.41;;;0.70;92.77
9523;BME280;63165;43.016;25.784;2023-12-28T05:59:40;101230.91;;;0.73;92.08
9523;BME280;63165;43.016;25.784;2023-12-28T06:02:07;101240.97;;;0.67;92.09
9523;BME280;63165;43.016;25.784;2023-12-28T06:04:34;101240.16;;;0.68;92.12
9523;BME280;63165;43.016;25.784;2023-12-28T06:07:04;101245.16;;;0.65;92.73
9523;BME280;63165;43.016;25.784;2023-12-28T06:09:31;101237.44;;;0.65;92.96
9523;BME280;63165;43.016;25.784;2023-12-28T06:11:59;101257.91;;;0.81;92.73
9523;BME280;63165;43.016;25.784;2023-12-28T06:14:26;101264.13;;;0.86;92.94
9523;BME280;63165;43.016;25.784;2023-12-28T06:16:53;101248.31;;;0.78;92.23
9523;BME280;63165;43.016;25.784;2023-12-28T06:19:20;101272.47;;;0.81;91.90
9523;BME280;63165;43.016;25.784;2023-12-28T06:21:48;101268.91;;;0.77;92.00
9523;BME280;63165;43.016;25.784;2023-12-28T06:24:16;101261.81;;;0.73;91.68
9523;BME280;63165;43.016;25.784;2023-12-28T06:26:44;101253.44;;;0.57;91.62
9523;BME280;63165;43.016;25.784;2023-12-28T06:29:11;101259.44;;;0.56;92.29
9523;BME280;63165;43.016;25.784;2023-12-28T06:31:38;101268.91;;;0.57;93.00
9523;BME280;63165;43.016;25.784;2023-12-28T06:34:06;101271.34;;;0.54;93.01
9523;BME280;63165;43.016;25.784;2023-12-28T06:36:33;101263.56;;;0.53;93.07
9523;BME280;63165;43.016;25.784;2023-12-28T06:39:00;101268.81;;;0.56;92.89
9523;BME280;63165;43.016;25.784;2023-12-28T06:41:29;101268.97;;;0.59;93.27
9523;BME280;63165;43.016;25.784;2023-12-28T06:43:56;101269.84;;;0.60;92.96
9523;BME280;63165;43.016;25.784;2023-12-28T06:46:23;101269.19;;;0.64;93.34
9523;BME280;63165;43.016;25.784;2023-12-28T06:48:50;101261.78;;;0.71;93.51
9523;BME280;63165;43.016;25.784;2023-12-28T06:51:17;101261.34;;;0.82;93.37
9523;BME280;63165;43.016;25.784;2023-12-28T06:53:45;101258.16;;;0.87;93.51
9523;BME280;63165;43.016;25.784;2023-12-28T06:56:12;101264.63;;;0.99;93.74
9523;BME280;63165;43.016;25.784;2023-12-28T06:58:41;101258.91;;;1.06;94.15
9523;BME280;63165;43.016;25.784;2023-12-28T07:01:08;101259.38;;;1.16;94.34
9523;BME280;63165;43.016;25.784;2023-12-28T07:03:36;101258.19;;;1.29;94.53
9523;BME280;63165;43.016;25.784;2023-12-28T07:06:03;101265.50;;;1.41;94.54
9523;BME280;63165;43.016;25.784;2023-12-28T07:08:30;101243.81;;;1.36;94.54
9523;BME280;63165;43.016;25.784;2023-12-28T07:10:57;101257.88;;;1.65;94.31
9523;BME280;63165;43.016;25.784;2023-12-28T07:13:24;101259.09;;;1.75;94.35
9523;BME280;63165;43.016;25.784;2023-12-28T07:15:53;101256.00;;;1.84;94.45
9523;BME280;63165;43.016;25.784;2023-12-28T07:18:20;101257.28;;;1.95;94.95
9523;BME280;63165;43.016;25.784;2023-12-28T07:20:47;101253.34;;;2.05;95.00
9523;BME280;63165;43.016;25.784;2023-12-28T07:23:14;101247.75;;;2.17;95.07
9523;BME280;63165;43.016;25.784;2023-12-28T07:25:41;101241.19;;;2.25;95.42
9523;BME280;63165;43.016;25.784;2023-12-28T07:28:08;101245.09;;;2.38;95.61
9523;BME280;63165;43.016;25.784;2023-12-28T07:30:36;101220.13;;;2.38;95.32
9523;BME280;63165;43.016;25.784;2023-12-28T07:33:04;101242.56;;;2.65;95.49
9523;BME280;63165;43.016;25.784;2023-12-28T07:35:31;101240.31;;;2.74;95.58
9523;BME280;63165;43.016;25.784;2023-12-28T07:37:58;101241.69;;;2.88;95.47
9523;BME280;63165;43.016;25.784;2023-12-28T07:40:25;101243.00;;;3.03;95.50
9523;BME280;63165;43.016;25.784;2023-12-28T07:42:53;101233.94;;;3.16;95.39
9523;BME280;63165;43.016;25.784;2023-12-28T07:45:20;101233.41;;;3.26;95.51
9523;BME280;63165;43.016;25.784;2023-12-28T07:47:49;101228.63;;;3.38;95.34
9523;BME280;63165;43.016;25.784;2023-12-28T07:50:18;101232.47;;;3.51;95.43
9523;BME280;63165;43.016;25.784;2023-12-28T07:52:46;101224.13;;;3.60;95.49
9523;BME280;63165;43.016;25.784;2023-12-28T07:55:13;101228.78;;;3.72;95.70
9523;BME280;63165;43.016;25.784;2023-12-28T07:57:41;101224.69;;;3.78;95.84
9523;BME280;63165;43.016;25.784;2023-12-28T08:00:09;101201.38;;;3.78;96.02
9523;BME280;63165;43.016;25.784;2023-12-28T08:02:36;101221.94;;;4.02;95.87
9523;BME280;63165;43.016;25.784;2023-12-28T08:05:04;101223.19;;;4.17;96.08
9523;BME280;63165;43.016;25.784;2023-12-28T08:07:32;101224.25;;;4.23;96.21
9523;BME280;63165;43.016;25.784;2023-12-28T08:10:00;101236.75;;;4.38;96.15
9523;BME280;63165;43.016;25.784;2023-12-28T08:12:27;101238.03;;;4.53;96.38
9523;BME280;63165;43.016;25.784;2023-12-28T08:14:54;101168.34;;;4.32;96.14
9523;BME280;63165;43.016;25.784;2023-12-28T08:17:21;101221.31;;;4.75;96.09
9523;BME280;63165;43.016;25.784;2023-12-28T08:19:49;101223.38;;;4.88;95.93
9523;BME280;63165;43.016;25.784;2023-12-28T08:22:16;101217.44;;;4.92;95.78
9523;BME280;63165;43.016;25.784;2023-12-28T08:24:45;101195.03;;;4.94;96.04
9523;BME280;63165;43.016;25.784;2023-12-28T08:27:12;101209.28;;;5.12;95.83
9523;BME280;63165;43.016;25.784;2023-12-28T08:29:40;101199.75;;;5.12;95.70
9523;BME280;63165;43.016;25.784;2023-12-28T08:32:08;101232.13;;;5.27;95.36
9523;BME280;63165;43.016;25.784;2023-12-28T08:34:36;101201.94;;;5.30;94.80
9523;BME280;63165;43.016;25.784;2023-12-28T08:37:03;101230.13;;;5.53;94.77
9523;BME280;63165;43.016;25.784;2023-12-28T08:39:30;101212.34;;;5.70;94.75
9523;BME280;63165;43.016;25.784;2023-12-28T08:41:59;101171.25;;;5.50;94.44
9523;BME280;63165;43.016;25.784;2023-12-28T08:44:26;101202.38;;;5.90;94.48
9523;BME280;63165;43.016;25.784;2023-12-28T08:46:53;101178.88;;;5.83;94.68
9523;BME280;63165;43.016;25.784;2023-12-28T08:49:20;101172.25;;;5.98;94.66
9523;BME280;63165;43.016;25.784;2023-12-28T08:51:48;101176.19;;;6.21;94.32
9523;BME280;63165;43.016;25.784;2023-12-28T08:54:15;101141.03;;;5.95;94.49
9523;BME280;63165;43.016;25.784;2023-12-28T09:05:23;101146.53;;;6.57;93.51
9523;BME280;63165;43.016;25.784;2023-12-28T09:07:50;101150.28;;;6.73;92.63
9523;BME280;63165;43.016;25.784;2023-12-28T09:10:17;101166.00;;;6.83;92.01
9523;BME280;63165;43.016;25.784;2023-12-28T09:12:49;101121.41;;;6.59;91.73
9523;BME280;63165;43.016;25.784;2023-12-28T09:15:16;101079.78;;;6.58;91.52
9523;BME280;63165;43.016;25.784;2023-12-28T09:17:43;101066.91;;;6.66;91.76
9523;BME280;63165;43.016;25.784;2023-12-28T09:20:11;101078.44;;;6.82;91.13
9523;BME280;63165;43.016;25.784;2023-12-28T09:22:40;101124.88;;;7.13;90.83
9523;BME280;63165;43.016;25.784;2023-12-28T09:25:08;101069.13;;;6.99;90.69
9523;BME280;63165;43.016;25.784;2023-12-28T09:27:35;101075.41;;;7.12;90.36
9523;BME280;63165;43.016;25.784;2023-12-28T09:30:02;101106.16;;;7.39;90.65
9523;BME280;63165;43.016;25.784;2023-12-28T09:32:30;101103.53;;;7.41;90.68
9523;BME280;63165;43.016;25.784;2023-12-28T09:34:57;101107.31;;;7.63;90.09
9523;BME280;63165;43.016;25.784;2023-12-28T09:37:24;101092.56;;;7.63;89.39
9523;BME280;63165;43.016;25.784;2023-12-28T09:39:53;101067.31;;;7.57;89.04
9523;BME280;63165;43.016;25.784;2023-12-28T09:42:25;101098.88;;;7.84;89.00
9523;BME280;63165;43.016;25.784;2023-12-28T09:44:53;101089.25;;;7.76;89.16
9523;BME280;63165;43.016;25.784;2023-12-28T09:47:21;101037.03;;;7.67;89.21
9523;BME280;63165;43.016;25.784;2023-12-28T09:49:48;101065.09;;;7.93;89.52
9523;BME280;63165;43.016;25.784;2023-12-28T09:52:16;101018.13;;;7.87;88.50
9523;BME280;63165;43.016;25.784;2023-12-28T09:54:43;101069.75;;;8.25;88.36
9523;BME280;63165;43.016;25.784;2023-12-28T09:57:12;101046.22;;;8.14;88.15
9523;BME280;63165;43.016;25.784;2023-12-28T09:59:40;100990.53;;;8.09;87.85
9523;BME280;63165;43.016;25.784;2023-12-28T10:02:07;100994.06;;;8.17;88.30
9523;BME280;63165;43.016;25.784;2023-12-28T10:04:36;101015.91;;;8.28;87.91
9523;BME280;63165;43.016;25.784;2023-12-28T10:07:04;101002.00;;;8.28;87.40
9523;BME280;63165;43.016;25.784;2023-12-28T10:09:31;101021.38;;;8.58;87.46
9523;BME280;63165;43.016;25.784;2023-12-28T10:12:03;101003.03;;;8.45;86.91
9523;BME280;63165;43.016;25.784;2023-12-28T10:14:39;101005.78;;;8.62;86.13
9523;BME280;63165;43.016;25.784;2023-12-28T10:17:11;100995.44;;;8.78;85.03
9523;BME280;63165;43.016;25.784;2023-12-28T10:19:46;100965.91;;;8.89;85.00
9523;BME280;63165;43.016;25.784;2023-12-28T10:22:17;100982.53;;;9.05;83.48
9523;BME280;63165;43.016;25.784;2023-12-28T10:24:48;100966.03;;;9.23;82.99
9523;BME280;63165;43.016;25.784;2023-12-28T10:27:16;100975.72;;;9.43;81.87
9523;BME280;63165;43.016;25.784;2023-12-28T10:29:45;101014.13;;;9.82;81.99
9523;BME280;63165;43.016;25.784;2023-12-28T10:32:13;100946.97;;;9.61;80.59
9523;BME280;63165;43.016;25.784;2023-12-28T10:34:40;100978.41;;;10.03;79.58
9523;BME280;63165;43.016;25.784;2023-12-28T10:37:08;100982.78;;;10.15;78.39
9523;BME280;63165;43.016;25.784;2023-12-28T10:39:39;100981.91;;;10.23;77.88
9523;BME280;63165;43.016;25.784;2023-12-28T10:42:12;100979.28;;;10.43;76.75
9523;BME280;63165;43.016;25.784;2023-12-28T10:44:45;100974.00;;;10.71;75.73
9523;BME280;63165;43.016;25.784;2023-12-28T10:47:16;100914.75;;;10.47;75.53
9523;BME280;63165;43.016;25.784;2023-12-28T10:49:47;100938.22;;;10.75;75.47
9523;BME280;63165;43.016;25.784;2023-12-28T10:52:16;100956.50;;;10.93;75.46
9523;BME280;63165;43.016;25.784;2023-12-28T10:54:54;100946.84;;;11.03;75.15
9523;BME280;63165;43.016;25.784;2023-12-28T10:57:27;100945.91;;;11.21;73.59
9523;BME280;63165;43.016;25.784;2023-12-28T11:00:02;100940.59;;;11.33;73.30
9523;BME280;63165;43.016;25.784;2023-12-28T11:02:38;100912.66;;;11.34;72.86
9523;BME280;63165;43.016;25.784;2023-12-28T11:05:07;100855.09;;;11.23;72.51
9523;BME280;63165;43.016;25.784;2023-12-28T11:07:35;100927.31;;;11.59;72.44
9523;BME280;63165;43.016;25.784;2023-12-28T11:10:05;100915.78;;;11.83;71.90
9523;BME280;63165;43.016;25.784;2023-12-28T11:12:33;100886.16;;;11.78;71.27
9523;BME280;63165;43.016;25.784;2023-12-28T11:15:02;100886.94;;;11.85;70.50
9523;BME280;63165;43.016;25.784;2023-12-28T11:17:30;100884.28;;;11.94;70.14
9523;BME280;63165;43.016;25.784;2023-12-28T11:19:58;100875.47;;;12.03;69.66
9523;BME280;63165;43.016;25.784;2023-12-28T11:22:27;100893.56;;;12.31;68.66
9523;BME280;63165;43.016;25.784;2023-12-28T11:24:54;100899.50;;;12.47;67.35
9523;BME280;63165;43.016;25.784;2023-12-28T11:27:22;100867.19;;;12.40;66.77
9523;BME280;63165;43.016;25.784;2023-12-28T11:29:51;100892.25;;;12.69;66.98
9523;BME280;63165;43.016;25.784;2023-12-28T11:32:20;100891.16;;;12.87;66.24
9523;BME280;63165;43.016;25.784;2023-12-28T11:34:56;100890.91;;;13.07;65.86
9523;BME280;63165;43.016;25.784;2023-12-28T11:37:26;100888.13;;;13.19;64.29
9523;BME280;63165;43.016;25.784;2023-12-28T11:39:53;100880.09;;;13.30;63.85
9523;BME280;63165;43.016;25.784;2023-12-28T11:42:22;100874.66;;;13.44;62.80
9523;BME280;63165;43.016;25.784;2023-12-28T11:44:54;100864.84;;;13.53;62.14
9523;BME280;63165;43.016;25.784;2023-12-28T11:47:24;100869.94;;;13.64;60.64
9523;BME280;63165;43.016;25.784;2023-12-28T11:49:52;100864.59;;;13.69;60.33
9523;BME280;63165;43.016;25.784;2023-12-28T11:52:24;100853.94;;;13.76;59.27
9523;BME280;63165;43.016;25.784;2023-12-28T11:54:52;100844.25;;;13.80;59.52
9523;BME280;63165;43.016;25.784;2023-12-28T11:57:20;100806.03;;;13.59;58.74
9523;BME280;63165;43.016;25.784;2023-12-28T11:59:52;100774.63;;;13.50;57.60
9523;BME280;63165;43.016;25.784;2023-12-28T12:02:20;100847.50;;;13.94;56.68
9523;BME280;63165;43.016;25.784;2023-12-28T12:04:49;100828.09;;;14.02;56.53
9523;BME280;63165;43.016;25.784;2023-12-28T12:07:16;100836.66;;;14.13;55.13
9523;BME280;63165;43.016;25.784;2023-12-28T12:09:43;100827.16;;;14.04;54.39
9523;BME280;63165;43.016;25.784;2023-12-28T12:12:11;100823.38;;;14.17;53.66
9523;BME280;63165;43.016;25.784;2023-12-28T12:14:38;100783.34;;;14.03;53.36
9523;BME280;63165;43.016;25.784;2023-12-28T12:17:05;100784.03;;;14.11;53.37
9523;BME280;63165;43.016;25.784;2023-12-28T12:19:32;100828.25;;;14.39;53.84
9523;BME280;63165;43.016;25.784;2023-12-28T12:22:01;100823.75;;;14.46;53.66
9523;BME280;63165;43.016;25.784;2023-12-28T12:24:28;100798.66;;;14.26;53.16
9523;BME280;63165;43.016;25.784;2023-12-28T12:26:58;100820.00;;;14.58;52.69
9523;BME280;63165;43.016;25.784;2023-12-28T12:29:29;100848.88;;;14.62;51.68
9523;BME280;63165;43.016;25.784;2023-12-28T12:31:57;100818.88;;;14.69;51.67
9523;BME280;63165;43.016;25.784;2023-12-28T12:34:24;100821.47;;;14.72;51.95
9523;BME280;63165;43.016;25.784;2023-12-28T12:36:52;100830.28;;;14.70;51.88
9523;BME280;63165;43.016;25.784;2023-12-28T12:39:23;100827.41;;;14.81;51.33
9523;BME280;63165;43.016;25.784;2023-12-28T12:41:50;100821.47;;;14.71;51.59
9523;BME280;63165;43.016;25.784;2023-12-28T12:44:19;100792.41;;;14.75;50.83
9523;BME280;63165;43.016;25.784;2023-12-28T12:46:46;100803.66;;;14.82;50.60
9523;BME280;63165;43.016;25.784;2023-12-28T12:49:13;100808.72;;;14.93;50.44
9523;BME280;63165;43.016;25.784;2023-12-28T12:51:44;100780.16;;;14.73;50.54
9523;BME280;63165;43.016;25.784;2023-12-28T12:54:11;100804.25;;;14.97;50.18
9523;BME280;63165;43.016;25.784;2023-12-28T12:56:40;100799.03;;;14.93;50.08
9523;BME280;63165;43.016;25.784;2023-12-28T12:59:11;100804.25;;;14.97;50.54
9523;BME280;63165;43.016;25.784;2023-12-28T13:01:41;100752.53;;;14.50;50.11
9523;BME280;63165;43.016;25.784;2023-12-28T13:04:08;100807.88;;;14.91;49.89
9523;BME280;63165;43.016;25.784;2023-12-28T13:06:36;100809.72;;;14.87;49.01
9523;BME280;63165;43.016;25.784;2023-12-28T13:09:03;100800.97;;;14.85;48.33
9523;BME280;63165;43.016;25.784;2023-12-28T13:11:33;100800.69;;;14.98;47.96